sensor_id;sensor_type;location;lat;lon;timestamp;pressure;altitude;pressure_sealevel;temperature;humidity
6208;BME280;3137;51.550;7.060;2023-06-24T00:02:00;76959.41;;;-145.94;61.87
6208;BME280;3137;51.550;7.060;2023-06-24T00:04:28;76959.41;;;-145.94;61.95
6208;BME280;3137;51.550;7.060;2023-06-24T00:06:54;76971.63;;;-145.94;61.91
6208;BME280;3137;51.550;7.060;2023-06-24T00:09:22;76975.72;;;-145.94;62.33
6208;BME280;3137;51.550;7.060;2023-06-24T00:11:49;76975.72;;;-145.94;62.43
6208;BME280;3137;51.550;7.060;2023-06-24T00:14:15;76977.75;;;-145.94;62.67
6208;BME280;3137;51.550;7.060;2023-06-24T00:16:42;76983.88;;;-145.94;62.84
6208;BME280;3137;51.550;7.060;2023-06-24T00:19:08;76989.97;;;-145.94;62.74
6208;BME280;3137;51.550;7.060;2023-06-24T00:21:35;76985.91;;;-145.94;63.03
6208;BME280;3137;51.550;7.060;2023-06-24T00:24:04;76992.03;;;-145.94;63.09
6208;BME280;3137;51.550;7.060;2023-06-24T00:26:31;76996.09;;;-145.94;63.57
6208;BME280;3137;51.550;7.060;2023-06-24T00:29:00;76996.09;;;-145.94;63.44
6208;BME280;3137;51.550;7.060;2023-06-24T00:31:26;77002.22;;;-145.94;63.53
6208;BME280;3137;51.550;7.060;2023-06-24T00:33:53;77002.22;;;-145.94;64.38
6208;BME280;3137;51.550;7.060;2023-06-24T00:36:20;77010.38;;;-145.94;64.00
6208;BME280;3137;51.550;7.060;2023-06-24T00:38:48;77008.34;;;-145.94;64.54
6208;BME280;3137;51.550;7.060;2023-06-24T00:41:17;77012.41;;;-145.94;64.65
6208;BME280;3137;51.550;7.060;2023-06-24T00:43:45;77014.47;;;-145.94;64.69
6208;BME280;3137;51.550;7.060;2023-06-24T00:46:12;77012.41;;;-145.94;64.86
6208;BME280;3137;51.550;7.060;2023-06-24T00:48:40;77014.47;;;-145.94;65.25
6208;BME280;3137;51.550;7.060;2023-06-24T00:51:06;77014.47;;;-145.94;65.69
6208;BME280;3137;51.550;7.060;2023-06-24T00:53:33;77014.47;;;-145.94;65.62
6208;BME280;3137;51.550;7.060;2023-06-24T00:55:59;77012.41;;;-145.94;65.57
6208;BME280;3137;51.550;7.060;2023-06-24T00:58:31;77012.41;;;-145.94;65.57
6208;BME280;3137;51.550;7.060;2023-06-24T01:00:57;77026.69;;;-145.94;65.50
6208;BME280;3137;51.550;7.060;2023-06-24T01:03:25;77036.88;;;-145.94;65.08
6208;BME280;3137;51.550;7.060;2023-06-24T01:05:53;77047.09;;;-145.94;65.03
6208;BME280;3137;51.550;7.060;2023-06-24T01:08:20;77051.16;;;-145.94;65.26
6208;BME280;3137;51.550;7.060;2023-06-24T01:10:49;77047.09;;;-145.94;64.82
6208;BME280;3137;51.550;7.060;2023-06-24T01:13:17;77045.03;;;-145.94;64.73
6208;BME280;3137;51.550;7.060;2023-06-24T01:15:44;77040.97;;;-145.94;65.11
6208;BME280;3137;51.550;7.060;2023-06-24T01:20:57;77043.00;;;-145.94;64.49
6208;BME280;3137;51.550;7.060;2023-06-24T01:23:52;77036.88;;;-145.94;64.85
6208;BME280;3137;51.550;7.060;2023-06-24T01:29:34;77034.84;;;-145.94;64.99
6208;BME280;3137;51.550;7.060;2023-06-24T01:32:06;77034.84;;;-145.94;65.24
6208;BME280;3137;51.550;7.060;2023-06-24T01:34:42;77043.00;;;-145.94;65.52
6208;BME280;3137;51.550;7.060;2023-06-24T01:37:20;77045.03;;;-145.94;65.54
6208;BME280;3137;51.550;7.060;2023-06-24T01:39:57;77043.00;;;-145.94;65.60
6208;BME280;3137;51.550;7.060;2023-06-24T01:42:29;77040.97;;;-145.94;65.61
6208;BME280;3137;51.550;7.060;2023-06-24T01:44:56;77040.97;;;-145.94;66.07
6208;BME280;3137;51.550;7.060;2023-06-24T01:47:26;77045.03;;;-145.94;66.49
6208;BME280;3137;51.550;7.060;2023-06-24T01:49:57;77051.16;;;-145.94;65.88
6208;BME280;3137;51.550;7.060;2023-06-24T01:52:27;77051.16;;;-145.94;66.34
6208;BME280;3137;51.550;7.060;2023-06-24T01:54:56;77053.19;;;-145.94;66.28
6208;BME280;3137;51.550;7.060;2023-06-24T01:57:25;77049.13;;;-145.94;66.57
6208;BME280;3137;51.550;7.060;2023-06-24T01:59:54;77051.16;;;-145.94;66.88
6208;BME280;3137;51.550;7.060;2023-06-24T02:02:22;77051.16;;;-145.94;66.73
6208;BME280;3137;51.550;7.060;2023-06-24T02:04:52;77051.16;;;-145.94;67.21
6208;BME280;3137;51.550;7.060;2023-06-24T02:07:21;77049.13;;;-145.94;67.14
6208;BME280;3137;51.550;7.060;2023-06-24T02:09:49;77057.28;;;-145.94;67.32
6208;BME280;3137;51.550;7.060;2023-06-24T02:12:19;77047.09;;;-145.94;67.54
6208;BME280;3137;51.550;7.060;2023-06-24T02:14:47;77053.19;;;-145.94;67.31
6208;BME280;3137;51.550;7.060;2023-06-24T02:17:14;77059.31;;;-145.94;67.52
6208;BME280;3137;51.550;7.060;2023-06-24T02:19:42;77055.25;;;-145.94;67.54
6208;BME280;3137;51.550;7.060;2023-06-24T02:22:10;77059.31;;;-145.94;67.70
6208;BME280;3137;51.550;7.060;2023-06-24T02:24:37;77065.44;;;-145.94;68.15
6208;BME280;3137;51.550;7.060;2023-06-24T02:27:06;77067.47;;;-145.94;68.02
6208;BME280;3137;51.550;7.060;2023-06-24T02:29:35;77065.44;;;-145.94;68.24
6208;BME280;3137;51.550;7.060;2023-06-24T02:32:03;77063.41;;;-145.94;67.96
6208;BME280;3137;51.550;7.060;2023-06-24T02:34:30;77061.34;;;-145.94;68.42
6208;BME280;3137;51.550;7.060;2023-06-24T02:36:59;77057.28;;;-145.94;68.52
6208;BME280;3137;51.550;7.060;2023-06-24T02:39:25;77061.34;;;-145.94;68.49
6208;BME280;3137;51.550;7.060;2023-06-24T02:41:52;77061.34;;;-145.94;68.38
6208;BME280;3137;51.550;7.060;2023-06-24T02:44:18;77063.41;;;-145.94;68.37
6208;BME280;3137;51.550;7.060;2023-06-24T02:46:46;77071.56;;;-145.94;68.39
6208;BME280;3137;51.550;7.060;2023-06-24T02:49:15;77073.59;;;-145.94;68.10
6208;BME280;3137;51.550;7.060;2023-06-24T02:51:44;77073.59;;;-145.94;68.17
6208;BME280;3137;51.550;7.060;2023-06-24T02:54:11;77081.75;;;-145.94;68.54
6208;BME280;3137;51.550;7.060;2023-06-24T02:56:59;77075.63;;;-145.94;68.34
6208;BME280;3137;51.550;7.060;2023-06-24T02:59:41;77075.63;;;-145.94;68.26
6208;BME280;3137;51.550;7.060;2023-06-24T03:02:11;77073.59;;;-145.94;69.11
6208;BME280;3137;51.550;7.060;2023-06-24T03:04:37;77079.72;;;-145.94;68.60
6208;BME280;3137;51.550;7.060;2023-06-24T03:07:05;77075.63;;;-145.94;68.84
6208;BME280;3137;51.550;7.060;2023-06-24T03:09:34;77079.72;;;-145.94;68.96
6208;BME280;3137;51.550;7.060;2023-06-24T03:12:01;77083.78;;;-145.94;68.43
6208;BME280;3137;51.550;7.060;2023-06-24T03:14:37;77091.94;;;-145.94;68.52
6208;BME280;3137;51.550;7.060;2023-06-24T03:17:04;77091.94;;;-145.94;68.41
6208;BME280;3137;51.550;7.060;2023-06-24T03:19:31;77083.78;;;-145.94;68.31
6208;BME280;3137;51.550;7.060;2023-06-24T03:21:58;77091.94;;;-145.94;68.99
6208;BME280;3137;51.550;7.060;2023-06-24T03:24:24;77091.94;;;-145.94;68.45
6208;BME280;3137;51.550;7.060;2023-06-24T03:26:52;77089.91;;;-145.94;68.74
6208;BME280;3137;51.550;7.060;2023-06-24T03:29:28;77081.75;;;-145.94;68.61
6208;BME280;3137;51.550;7.060;2023-06-24T03:32:11;77083.78;;;-145.94;69.28
6208;BME280;3137;51.550;7.060;2023-06-24T03:34:37;77081.75;;;-145.94;69.12
6208;BME280;3137;51.550;7.060;2023-06-24T03:37:04;77075.63;;;-145.94;69.27
6208;BME280;3137;51.550;7.060;2023-06-24T03:39:33;77071.56;;;-145.94;68.82
6208;BME280;3137;51.550;7.060;2023-06-24T03:42:00;77075.63;;;-145.94;68.93
6208;BME280;3137;51.550;7.060;2023-06-24T03:44:27;77075.63;;;-145.94;69.31
6208;BME280;3137;51.550;7.060;2023-06-24T03:46:53;77073.59;;;-145.94;68.89
6208;BME280;3137;51.550;7.060;2023-06-24T03:49:20;77075.63;;;-145.94;69.30
6208;BME280;3137;51.550;7.060;2023-06-24T03:51:47;77077.69;;;-145.94;69.43
6208;BME280;3137;51.550;7.060;2023-06-24T03:54:14;77075.63;;;-145.94;69.06
6208;BME280;3137;51.550;7.060;2023-06-24T03:56:41;77075.63;;;-145.94;69.26
6208;BME280;3137;51.550;7.060;2023-06-24T03:59:07;77077.69;;;-145.94;69.02
6208;BME280;3137;51.550;7.060;2023-06-24T04:01:34;77079.72;;;-145.94;69.41
6208;BME280;3137;51.550;7.060;2023-06-24T04:04:03;77075.63;;;-145.94;69.21
6208;BME280;3137;51.550;7.060;2023-06-24T04:06:29;77073.59;;;-145.94;68.87
6208;BME280;3137;51.550;7.060;2023-06-24T04:08:56;77075.63;;;-145.94;69.27
6208;BME280;3137;51.550;7.060;2023-06-24T04:11:22;77077.69;;;-145.94;69.00
6208;BME280;3137;51.550;7.060;2023-06-24T04:13:50;77077.69;;;-145.94;69.44
6208;BME280;3137;51.550;7.060;2023-06-24T04:16:16;77067.47;;;-145.94;69.27
6208;BME280;3137;51.550;7.060;2023-06-24T04:18:43;77063.41;;;-145.94;69.22
6208;BME280;3137;51.550;7.060;2023-06-24T04:21:10;77063.41;;;-145.94;69.12
6208;BME280;3137;51.550;7.060;2023-06-24T04:23:36;77053.19;;;-145.94;69.45
6208;BME280;3137;51.550;7.060;2023-06-24T04:26:03;77053.19;;;-145.94;69.26
6208;BME280;3137;51.550;7.060;2023-06-24T04:28:29;77055.25;;;-145.94;69.26
6208;BME280;3137;51.550;7.060;2023-06-24T04:30:56;77051.16;;;-145.94;69.41
6208;BME280;3137;51.550;7.060;2023-06-24T04:33:22;77051.16;;;-145.94;69.42
6208;BME280;3137;51.550;7.060;2023-06-24T04:35:50;77055.25;;;-145.94;69.26
6208;BME280;3137;51.550;7.060;2023-06-24T04:38:18;77049.13;;;-145.94;69.69
6208;BME280;3137;51.550;7.060;2023-06-24T04:40:46;77043.00;;;-145.94;69.20
6208;BME280;3137;51.550;7.060;2023-06-24T04:43:13;77043.00;;;-145.94;69.50
6208;BME280;3137;51.550;7.060;2023-06-24T04:45:39;77034.84;;;-145.94;69.41
6208;BME280;3137;51.550;7.060;2023-06-24T04:48:06;77022.63;;;-145.94;69.37
6208;BME280;3137;51.550;7.060;2023-06-24T04:50:32;77018.53;;;-145.94;69.52
6208;BME280;3137;51.550;7.060;2023-06-24T04:52:59;77010.38;;;-145.94;68.91
6208;BME280;3137;51.550;7.060;2023-06-24T04:55:28;77008.34;;;-145.94;68.88
6208;BME280;3137;51.550;7.060;2023-06-24T04:57:56;77006.31;;;-145.94;69.12
6208;BME280;3137;51.550;7.060;2023-06-24T05:00:22;76989.97;;;-145.94;68.93
6208;BME280;3137;51.550;7.060;2023-06-24T05:02:51;76989.97;;;-145.94;68.65
6208;BME280;3137;51.550;7.060;2023-06-24T05:05:18;76985.91;;;-145.94;68.41
6208;BME280;3137;51.550;7.060;2023-06-24T05:07:46;76979.78;;;-145.94;68.34
6208;BME280;3137;51.550;7.060;2023-06-24T05:10:13;76979.78;;;-145.94;68.21
6208;BME280;3137;51.550;7.060;2023-06-24T05:12:40;76965.50;;;-145.94;68.36
6208;BME280;3137;51.550;7.060;2023-06-24T05:15:07;76953.28;;;-145.94;68.14
6208;BME280;3137;51.550;7.060;2023-06-24T05:17:33;76936.97;;;-145.94;68.52
6208;BME280;3137;51.550;7.060;2023-06-24T05:20:00;76930.84;;;-145.94;68.24
6208;BME280;3137;51.550;7.060;2023-06-24T05:22:26;76928.81;;;-145.94;67.89
6208;BME280;3137;51.550;7.060;2023-06-24T05:24:53;76918.63;;;-145.94;67.93
6208;BME280;3137;51.550;7.060;2023-06-24T05:27:19;76914.53;;;-145.94;67.93
6208;BME280;3137;51.550;7.060;2023-06-24T05:29:46;76908.41;;;-145.94;67.61
6208;BME280;3137;51.550;7.060;2023-06-24T05:32:12;76902.28;;;-145.94;67.65
6208;BME280;3137;51.550;7.060;2023-06-24T05:34:39;76894.13;;;-145.94;67.72
6208;BME280;3137;51.550;7.060;2023-06-24T05:37:05;76885.97;;;-145.94;67.38
6208;BME280;3137;51.550;7.060;2023-06-24T05:39:32;76873.75;;;-145.94;66.85
6208;BME280;3137;51.550;7.060;2023-06-24T05:41:58;76869.66;;;-145.94;66.62
6208;BME280;3137;51.550;7.060;2023-06-24T05:44:25;76855.41;;;-145.94;66.12
6208;BME280;3137;51.550;7.060;2023-06-24T05:46:51;76853.34;;;-145.94;65.77
6208;BME280;3137;51.550;7.060;2023-06-24T05:49:17;76832.97;;;-145.94;65.46
6208;BME280;3137;51.550;7.060;2023-06-24T05:51:44;76830.94;;;-145.94;65.19
6208;BME280;3137;51.550;7.060;2023-06-24T05:54:10;76822.78;;;-145.94;64.79
6208;BME280;3137;51.550;7.060;2023-06-24T05:56:37;76816.66;;;-145.94;64.53
6208;BME280;3137;51.550;7.060;2023-06-24T05:59:06;76806.47;;;-145.94;63.65
6208;BME280;3137;51.550;7.060;2023-06-24T06:01:32;76802.38;;;-145.94;62.93
6208;BME280;3137;51.550;7.060;2023-06-24T06:03:59;76800.34;;;-145.94;62.58
6208;BME280;3137;51.550;7.060;2023-06-24T06:06:25;76792.19;;;-145.94;62.55
6208;BME280;3137;51.550;7.060;2023-06-24T06:08:52;76788.09;;;-145.94;62.06
6208;BME280;3137;51.550;7.060;2023-06-24T06:11:18;76777.91;;;-145.94;61.73
6208;BME280;3137;51.550;7.060;2023-06-24T06:13:45;76757.50;;;-145.94;61.01
6208;BME280;3137;51.550;7.060;2023-06-24T06:16:11;76745.28;;;-145.94;60.87
6208;BME280;3137;51.550;7.060;2023-06-24T06:18:37;76737.13;;;-145.94;60.33
6208;BME280;3137;51.550;7.060;2023-06-24T06:21:04;76724.88;;;-145.94;60.19
6208;BME280;3137;51.550;7.060;2023-06-24T06:23:30;76716.72;;;-145.94;59.37
6208;BME280;3137;51.550;7.060;2023-06-24T06:25:57;76712.66;;;-145.94;59.20
6208;BME280;3137;51.550;7.060;2023-06-24T06:28:24;76704.50;;;-145.94;58.57
6208;BME280;3137;51.550;7.060;2023-06-24T06:30:50;76704.50;;;-145.94;58.45
6208;BME280;3137;51.550;7.060;2023-06-24T06:33:17;76684.09;;;-145.94;58.27
6208;BME280;3137;51.550;7.060;2023-06-24T06:35:43;76673.91;;;-145.94;58.51
6208;BME280;3137;51.550;7.060;2023-06-24T06:38:10;76657.59;;;-145.94;57.96
6208;BME280;3137;51.550;7.060;2023-06-24T06:40:36;76657.59;;;-145.94;57.01
6208;BME280;3137;51.550;7.060;2023-06-24T06:43:03;76647.41;;;-145.94;57.01
6208;BME280;3137;51.550;7.060;2023-06-24T06:45:29;76643.31;;;-145.94;56.99
6208;BME280;3137;51.550;7.060;2023-06-24T06:47:58;76635.16;;;-145.94;57.01
6208;BME280;3137;51.550;7.060;2023-06-24T06:50:24;76622.94;;;-145.94;56.99
6208;BME280;3137;51.550;7.060;2023-06-24T06:52:51;76620.91;;;-145.94;57.16
6208;BME280;3137;51.550;7.060;2023-06-24T06:55:17;76606.63;;;-145.94;57.19
6208;BME280;3137;51.550;7.060;2023-06-24T06:57:44;76594.38;;;-145.94;57.04
6208;BME280;3137;51.550;7.060;2023-06-24T07:00:11;76584.19;;;-145.94;56.67
6208;BME280;3137;51.550;7.060;2023-06-24T07:02:37;76567.88;;;-145.94;55.98
6208;BME280;3137;51.550;7.060;2023-06-24T07:05:04;76557.69;;;-145.94;55.94
6208;BME280;3137;51.550;7.060;2023-06-24T07:07:31;76545.44;;;-145.94;56.36
6208;BME280;3137;51.550;7.060;2023-06-24T07:09:59;76533.22;;;-145.94;56.37
6208;BME280;3137;51.550;7.060;2023-06-24T07:12:25;76529.13;;;-145.94;55.89
6208;BME280;3137;51.550;7.060;2023-06-24T07:14:51;76516.91;;;-145.94;55.58
6208;BME280;3137;51.550;7.060;2023-06-24T07:17:18;76514.88;;;-145.94;55.20
6208;BME280;3137;51.550;7.060;2023-06-24T07:19:45;76504.66;;;-145.94;54.93
6208;BME280;3137;51.550;7.060;2023-06-24T07:22:11;76500.59;;;-145.94;54.89
6208;BME280;3137;51.550;7.060;2023-06-24T07:24:38;76502.63;;;-145.94;54.44
6208;BME280;3137;51.550;7.060;2023-06-24T07:27:05;76492.44;;;-145.94;54.83
6208;BME280;3137;51.550;7.060;2023-06-24T07:29:31;76482.25;;;-145.94;55.51
6208;BME280;3137;51.550;7.060;2023-06-24T07:31:58;76474.09;;;-145.94;54.92
6208;BME280;3137;51.550;7.060;2023-06-24T07:34:24;76472.03;;;-145.94;55.87
6208;BME280;3137;51.550;7.060;2023-06-24T07:36:50;76461.84;;;-145.94;55.71
6208;BME280;3137;51.550;7.060;2023-06-24T07:39:17;76451.66;;;-145.94;55.71
6208;BME280;3137;51.550;7.060;2023-06-24T07:41:44;76447.56;;;-145.94;54.72
6208;BME280;3137;51.550;7.060;2023-06-24T07:44:10;76443.50;;;-145.94;55.09
6208;BME280;3137;51.550;7.060;2023-06-24T07:46:37;76447.56;;;-145.94;54.45
6208;BME280;3137;51.550;7.060;2023-06-24T07:49:03;76451.66;;;-145.94;54.78
6208;BME280;3137;51.550;7.060;2023-06-24T07:51:30;76441.47;;;-145.94;55.38
6208;BME280;3137;51.550;7.060;2023-06-24T07:53:56;76447.56;;;-145.94;54.67
6208;BME280;3137;51.550;7.060;2023-06-24T07:56:23;76449.63;;;-145.94;53.69
6208;BME280;3137;51.550;7.060;2023-06-24T07:58:49;76455.72;;;-145.94;53.80
6208;BME280;3137;51.550;7.060;2023-06-24T08:01:16;76455.72;;;-145.94;53.63
6208;BME280;3137;51.550;7.060;2023-06-24T08:03:42;76451.66;;;-145.94;54.49
6208;BME280;3137;51.550;7.060;2023-06-24T08:06:09;76443.50;;;-145.94;54.08
6208;BME280;3137;51.550;7.060;2023-06-24T08:08:35;76437.38;;;-145.94;53.96
6208;BME280;3137;51.550;7.060;2023-06-24T08:11:02;76435.34;;;-145.94;53.61
6208;BME280;3137;51.550;7.060;2023-06-24T08:13:29;76427.19;;;-145.94;54.01
6208;BME280;3137;51.550;7.060;2023-06-24T08:15:55;76423.13;;;-145.94;53.51
6208;BME280;3137;51.550;7.060;2023-06-24T08:18:22;76406.81;;;-145.94;53.38
6208;BME280;3137;51.550;7.060;2023-06-24T08:20:48;76402.72;;;-145.94;53.39
6208;BME280;3137;51.550;7.060;2023-06-24T08:23:15;76396.59;;;-145.94;53.06
6208;BME280;3137;51.550;7.060;2023-06-24T08:25:41;76380.28;;;-145.94;52.77
6208;BME280;3137;51.550;7.060;2023-06-24T08:28:08;76382.34;;;-145.94;52.66
6208;BME280;3137;51.550;7.060;2023-06-24T08:30:34;76370.09;;;-145.94;52.77
6208;BME280;3137;51.550;7.060;2023-06-24T08:33:01;76368.06;;;-145.94;51.23
6208;BME280;3137;51.550;7.060;2023-06-24T08:35:27;76353.78;;;-145.94;51.65
6208;BME280;3137;51.550;7.060;2023-06-24T08:37:54;76345.63;;;-145.94;52.06
6208;BME280;3137;51.550;7.060;2023-06-24T08:40:20;76335.44;;;-145.94;50.22
6208;BME280;3137;51.550;7.060;2023-06-24T08:42:47;76325.25;;;-145.94;49.88
6208;BME280;3137;51.550;7.060;2023-06-24T08:45:13;76319.13;;;-145.94;48.50
6208;BME280;3137;51.550;7.060;2023-06-24T08:47:40;76310.97;;;-145.94;47.99
6208;BME280;3137;51.550;7.060;2023-06-24T08:50:11;76306.88;;;-145.94;48.26
6208;BME280;3137;51.550;7.060;2023-06-24T08:52:42;76300.78;;;-145.94;50.02
6208;BME280;3137;51.550;7.060;2023-06-24T08:55:13;76288.53;;;-145.94;48.54
6208;BME280;3137;51.550;7.060;2023-06-24T08:57:40;76300.78;;;-145.94;47.56
6208;BME280;3137;51.550;7.060;2023-06-24T09:00:07;76292.63;;;-145.94;48.92
6208;BME280;3137;51.550;7.060;2023-06-24T09:02:38;76286.50;;;-145.94;47.53
6208;BME280;3137;51.550;7.060;2023-06-24T09:05:05;76276.31;;;-145.94;48.04
6208;BME280;3137;51.550;7.060;2023-06-24T09:07:32;76257.97;;;-145.94;45.75
6208;BME280;3137;51.550;7.060;2023-06-24T09:09:59;76257.97;;;-145.94;46.00
6208;BME280;3137;51.550;7.060;2023-06-24T09:12:27;76264.06;;;-145.94;45.43
6208;BME280;3137;51.550;7.060;2023-06-24T09:14:54;76260.00;;;-145.94;42.30
6208;BME280;3137;51.550;7.060;2023-06-24T09:17:20;76260.00;;;-145.94;44.04
6208;BME280;3137;51.550;7.060;2023-06-24T09:19:50;76249.81;;;-145.94;42.28
6208;BME280;3137;51.550;7.060;2023-06-24T09:22:17;76245.72;;;-145.94;40.08
6208;BME280;3137;51.550;7.060;2023-06-24T09:24:45;76239.59;;;-145.94;39.48
6208;BME280;3137;51.550;7.060;2023-06-24T09:27:14;76223.28;;;-145.94;42.07
6208;BME280;3137;51.550;7.060;2023-06-24T09:29:42;76215.13;;;-145.94;43.10
6208;BME280;3137;51.550;7.060;2023-06-24T09:32:09;76204.94;;;-145.94;42.36
6208;BME280;3137;51.550;7.060;2023-06-24T09:34:36;76184.56;;;-145.94;43.10
6208;BME280;3137;51.550;7.060;2023-06-24T09:37:03;76176.41;;;-145.94;40.17
6208;BME280;3137;51.550;7.060;2023-06-24T09:39:35;76178.44;;;-145.94;40.19
6208;BME280;3137;51.550;7.060;2023-06-24T09:42:04;76170.28;;;-145.94;40.33
6208;BME280;3137;51.550;7.060;2023-06-24T09:44:31;76170.28;;;-145.94;39.04
6208;BME280;3137;51.550;7.060;2023-06-24T09:46:58;76174.38;;;-145.94;38.65
6208;BME280;3137;51.550;7.060;2023-06-24T09:49:24;76182.53;;;-145.94;36.25
6208;BME280;3137;51.550;7.060;2023-06-24T09:51:58;76160.09;;;-145.94;38.64
6208;BME280;3137;51.550;7.060;2023-06-24T09:54:26;76151.94;;;-145.94;37.52
6208;BME280;3137;51.550;7.060;2023-06-24T09:57:02;76162.13;;;-145.94;38.33
6208;BME280;3137;51.550;7.060;2023-06-24T09:59:30;76158.06;;;-145.94;38.60
6208;BME280;3137;51.550;7.060;2023-06-24T10:02:00;76139.69;;;-145.94;39.67
6208;BME280;3137;51.550;7.060;2023-06-24T10:04:27;76135.63;;;-145.94;39.59
6208;BME280;3137;51.550;7.060;2023-06-24T10:06:54;76103.00;;;-145.94;38.99
6208;BME280;3137;51.550;7.060;2023-06-24T10:09:21;76121.34;;;-145.94;38.19
6208;BME280;3137;51.550;7.060;2023-06-24T10:11:48;76123.41;;;-145.94;35.73
6208;BME280;3137;51.550;7.060;2023-06-24T10:14:14;76121.34;;;-145.94;36.71
6208;BME280;3137;51.550;7.060;2023-06-24T10:16:42;76105.03;;;-145.94;37.95
6208;BME280;3137;51.550;7.060;2023-06-24T10:19:09;76092.81;;;-145.94;37.76
6208;BME280;3137;51.550;7.060;2023-06-24T10:24:32;76088.72;;;-145.94;37.67
6208;BME280;3137;51.550;7.060;2023-06-24T10:27:04;76086.69;;;-145.94;37.34
6208;BME280;3137;51.550;7.060;2023-06-24T10:29:35;76080.56;;;-145.94;38.79
6208;BME280;3137;51.550;7.060;2023-06-24T10:32:08;76080.56;;;-145.94;38.18
6208;BME280;3137;51.550;7.060;2023-06-24T10:34:38;76082.63;;;-145.94;38.49
6208;BME280;3137;51.550;7.060;2023-06-24T10:40:01;76082.63;;;-145.94;38.85
6208;BME280;3137;51.550;7.060;2023-06-24T10:44:58;76039.81;;;-145.94;37.95
6208;BME280;3137;51.550;7.060;2023-06-24T10:47:26;76037.75;;;-145.94;36.10
6208;BME280;3137;51.550;7.060;2023-06-24T10:49:53;76017.38;;;-145.94;38.08
6208;BME280;3137;51.550;7.060;2023-06-24T10:52:21;76007.19;;;-145.94;38.43
6208;BME280;3137;51.550;7.060;2023-06-24T10:54:49;76009.22;;;-145.94;37.39
6208;BME280;3137;51.550;7.060;2023-06-24T10:57:20;76003.09;;;-145.94;34.66
6208;BME280;3137;51.550;7.060;2023-06-24T10:59:49;75990.88;;;-145.94;35.50
6208;BME280;3137;51.550;7.060;2023-06-24T11:02:18;75990.88;;;-145.94;35.23
6208;BME280;3137;51.550;7.060;2023-06-24T11:04:49;75986.78;;;-145.94;36.00
6208;BME280;3137;51.550;7.060;2023-06-24T11:07:21;75980.69;;;-145.94;35.25
6208;BME280;3137;51.550;7.060;2023-06-24T11:09:52;75990.88;;;-145.94;34.84
6208;BME280;3137;51.550;7.060;2023-06-24T11:12:23;75999.03;;;-145.94;35.78
6208;BME280;3137;51.550;7.060;2023-06-24T11:14:49;75974.56;;;-145.94;34.49
6208;BME280;3137;51.550;7.060;2023-06-24T11:17:16;75960.28;;;-145.94;35.05
6208;BME280;3137;51.550;7.060;2023-06-24T11:19:42;75948.06;;;-145.94;35.12
6208;BME280;3137;51.550;7.060;2023-06-24T11:22:10;75952.13;;;-145.94;35.86
6208;BME280;3137;51.550;7.060;2023-06-24T11:24:36;75952.13;;;-145.94;35.24
6208;BME280;3137;51.550;7.060;2023-06-24T11:27:05;75948.06;;;-145.94;35.82
6208;BME280;3137;51.550;7.060;2023-06-24T11:29:33;75943.97;;;-145.94;36.53
6208;BME280;3137;51.550;7.060;2023-06-24T11:32:01;75923.59;;;-145.94;36.88
6208;BME280;3137;51.550;7.060;2023-06-24T11:34:29;75923.59;;;-145.94;35.68
6208;BME280;3137;51.550;7.060;2023-06-24T11:36:56;75927.66;;;-145.94;35.19
6208;BME280;3137;51.550;7.060;2023-06-24T11:41:49;75935.81;;;-145.94;34.44
6208;BME280;3137;51.550;7.060;2023-06-24T11:44:17;75919.50;;;-145.94;35.58
6208;BME280;3137;51.550;7.060;2023-06-24T11:46:44;75917.47;;;-145.94;35.32
6208;BME280;3137;51.550;7.060;2023-06-24T11:49:11;75911.38;;;-145.94;34.82
6208;BME280;3137;51.550;7.060;2023-06-24T11:51:45;75882.81;;;-145.94;34.58
6208;BME280;3137;51.550;7.060;2023-06-24T11:54:17;75872.63;;;-145.94;35.44
6208;BME280;3137;51.550;7.060;2023-06-24T11:56:50;75874.66;;;-145.94;32.75
6208;BME280;3137;51.550;7.060;2023-06-24T11:59:22;75868.56;;;-145.94;32.83
6208;BME280;3137;51.550;7.060;2023-06-24T12:01:53;75862.44;;;-145.94;30.84
6208;BME280;3137;51.550;7.060;2023-06-24T12:04:21;75872.63;;;-145.94;29.71
6208;BME280;3137;51.550;7.060;2023-06-24T12:06:48;75870.59;;;-145.94;30.89
6208;BME280;3137;51.550;7.060;2023-06-24T12:09:15;75854.28;;;-145.94;31.39
6208;BME280;3137;51.550;7.060;2023-06-24T12:11:42;75840.00;;;-145.94;31.91
6208;BME280;3137;51.550;7.060;2023-06-24T12:14:08;75844.09;;;-145.94;31.30
6208;BME280;3137;51.550;7.060;2023-06-24T12:16:35;75844.09;;;-145.94;31.57
6208;BME280;3137;51.550;7.060;2023-06-24T12:19:02;75848.16;;;-145.94;31.86
6208;BME280;3137;51.550;7.060;2023-06-24T12:21:29;75844.09;;;-145.94;30.17
6208;BME280;3137;51.550;7.060;2023-06-24T12:23:55;75852.25;;;-145.94;31.21
6208;BME280;3137;51.550;7.060;2023-06-24T12:26:21;75858.34;;;-145.94;28.89
6208;BME280;3137;51.550;7.060;2023-06-24T12:28:48;75856.31;;;-145.94;30.11
6208;BME280;3137;51.550;7.060;2023-06-24T12:31:15;75848.16;;;-145.94;29.77
6208;BME280;3137;51.550;7.060;2023-06-24T12:33:41;75827.78;;;-145.94;29.79
6208;BME280;3137;51.550;7.060;2023-06-24T12:36:08;75823.69;;;-145.94;30.71
6208;BME280;3137;51.550;7.060;2023-06-24T12:38:34;75821.66;;;-145.94;29.99
6208;BME280;3137;51.550;7.060;2023-06-24T12:41:01;75811.47;;;-145.94;29.35
6208;BME280;3137;51.550;7.060;2023-06-24T12:43:28;75813.50;;;-145.94;29.84
6208;BME280;3137;51.550;7.060;2023-06-24T12:45:55;75801.28;;;-145.94;29.19
6208;BME280;3137;51.550;7.060;2023-06-24T12:48:22;75782.94;;;-145.94;31.37
6208;BME280;3137;51.550;7.060;2023-06-24T12:50:48;75774.78;;;-145.94;31.55
6208;BME280;3137;51.550;7.060;2023-06-24T12:53:20;75766.63;;;-145.94;31.11
6208;BME280;3137;51.550;7.060;2023-06-24T12:55:47;75748.28;;;-145.94;29.32
6208;BME280;3137;51.550;7.060;2023-06-24T12:58:14;75748.28;;;-145.94;28.79
6208;BME280;3137;51.550;7.060;2023-06-24T13:00:41;75740.13;;;-145.94;30.96
6208;BME280;3137;51.550;7.060;2023-06-24T13:03:07;75756.41;;;-145.94;29.42
6208;BME280;3137;51.550;7.060;2023-06-24T13:05:34;75764.56;;;-145.94;27.79
6208;BME280;3137;51.550;7.060;2023-06-24T13:08:00;75762.53;;;-145.94;29.72
6208;BME280;3137;51.550;7.060;2023-06-24T13:10:27;75762.53;;;-145.94;29.80
6208;BME280;3137;51.550;7.060;2023-06-24T13:12:53;75762.53;;;-145.94;29.18
6208;BME280;3137;51.550;7.060;2023-06-24T13:15:20;75760.50;;;-145.94;29.24
6208;BME280;3137;51.550;7.060;2023-06-24T13:17:46;75752.34;;;-145.94;31.06
6208;BME280;3137;51.550;7.060;2023-06-24T13:20:13;75734.00;;;-145.94;29.80